Time;durP1;ratioP1;P1;durP2;ratioP2;P2;SDS_P1;SDS_P2;PMS_P1;PMS_P2;Temp;Humidity;BMP_temperature;BMP_pressure;BME280_temperature;BME280_humidity;BME280_pressure;Samples;Min_cycle;Max_cycle;Signal;HPM_P1;HPM_P2
2023/03/04 00:01:03;;;;;;;18.55;10.80;;;;;;;6.06;100.00;98597.31;5043127;28;21080;-60
2023/03/04 00:03:29;;;;;;;17.70;10.68;;;;;;;6.03;100.00;98598.38;5049535;28;20043;-60
2023/03/04 00:05:54;;;;;;;15.85;10.45;;;;;;;6.02;100.00;98601.88;5049763;28;20543;-60
2023/03/04 00:08:20;;;;;;;18.00;10.70;;;;;;;6.04;100.00;98600.03;5044171;28;20023;-60
2023/03/04 00:10:45;;;;;;;18.13;10.82;;;;;;;6.12;100.00;98609.78;5051064;28;20032;-60
2023/03/04 00:13:11;;;;;;;15.75;10.15;;;;;;;6.10;100.00;98606.50;5059856;28;20124;-60
2023/03/04 00:15:36;;;;;;;15.65;9.75;;;;;;;6.12;100.00;98604.63;5032672;28;20020;-60
2023/03/04 00:18:02;;;;;;;17.17;9.63;;;;;;;6.15;100.00;98604.38;5031235;28;20617;-60
2023/03/04 00:20:27;;;;;;;19.23;10.43;;;;;;;6.02;100.00;98604.47;5047406;28;20990;-60
2023/03/04 00:22:53;;;;;;;15.63;10.10;;;;;;;5.93;100.00;98610.28;5033045;28;20031;-60
2023/03/04 00:25:18;;;;;;;16.42;10.40;;;;;;;6.03;100.00;98610.47;5065406;28;20028;-60
2023/03/04 00:27:43;;;;;;;17.77;10.98;;;;;;;6.06;100.00;98615.38;5049866;28;20902;-60
2023/03/04 00:30:09;;;;;;;17.75;10.77;;;;;;;6.02;100.00;98612.22;5032300;28;20044;-60
2023/03/04 00:32:35;;;;;;;15.75;10.57;;;;;;;6.06;100.00;98620.56;5043183;28;20588;-60
2023/03/04 00:35:00;;;;;;;17.40;10.18;;;;;;;6.05;100.00;98613.75;5042390;28;20055;-59
2023/03/04 00:37:26;;;;;;;17.35;10.70;;;;;;;5.97;100.00;98609.19;5049327;28;20040;-60
2023/03/04 00:39:51;;;;;;;16.58;10.73;;;;;;;5.58;100.00;98572.47;5038262;28;20036;-60
2023/03/04 00:42:16;;;;;;;17.55;10.38;;;;;;;5.70;100.00;98589.63;5044023;28;20166;-60
2023/03/04 00:44:42;;;;;;;19.52;11.25;;;;;;;5.80;100.00;98615.56;5063445;28;20039;-60
2023/03/04 00:47:08;;;;;;;19.20;11.45;;;;;;;5.75;100.00;98620.25;5047227;28;20032;-60
2023/03/04 00:49:33;;;;;;;19.02;11.43;;;;;;;5.30;100.00;98548.72;5059742;28;20051;-60
2023/03/04 00:51:59;;;;;;;20.25;11.98;;;;;;;5.65;100.00;98612.34;5055686;28;20412;-60
2023/03/04 00:54:24;;;;;;;20.38;12.38;;;;;;;5.68;100.00;98625.03;5079326;28;20439;-60
2023/03/04 00:56:49;;;;;;;18.23;11.55;;;;;;;5.67;100.00;98622.56;5040384;28;20032;-60
2023/03/04 00:59:15;;;;;;;19.17;11.88;;;;;;;5.54;100.00;98617.50;5073371;28;20139;-60
2023/03/04 01:01:40;;;;;;;20.60;11.63;;;;;;;5.29;100.00;98572.03;5044925;28;20396;-59
2023/03/04 01:04:06;;;;;;;18.08;10.88;;;;;;;5.52;100.00;98607.28;5047324;28;20032;-59
2023/03/04 01:06:31;;;;;;;18.35;11.07;;;;;;;5.64;100.00;98617.63;5075569;28;20028;-60
2023/03/04 01:08:56;;;;;;;16.55;11.05;;;;;;;5.62;100.00;98607.41;5074257;28;20039;-60
2023/03/04 01:11:22;;;;;;;17.65;11.15;;;;;;;5.53;100.00;98610.69;5059224;28;20081;-60
2023/03/04 01:13:47;;;;;;;18.38;10.95;;;;;;;5.55;100.00;98607.06;5074194;28;20880;-60
2023/03/04 01:16:13;;;;;;;16.95;10.18;;;;;;;5.57;100.00;98615.50;5057856;28;20039;-60
2023/03/04 01:18:38;;;;;;;16.75;10.38;;;;;;;5.59;100.00;98603.31;5058986;28;20047;-60
2023/03/04 01:21:05;;;;;;;20.02;11.13;;;;;;;5.71;100.00;98611.94;5076632;28;20869;-60
2023/03/04 01:23:30;;;;;;;19.27;11.05;;;;;;;5.66;100.00;98598.53;5057069;28;20119;-60
2023/03/04 01:25:56;;;;;;;16.02;10.57;;;;;;;5.55;100.00;98590.78;5062770;28;20028;-60
2023/03/04 01:28:21;;;;;;;18.10;10.70;;;;;;;5.54;100.00;98595.09;5078543;28;20107;-60
2023/03/04 01:30:46;;;;;;;17.52;10.40;;;;;;;5.18;100.00;98537.56;5060200;28;20358;-60
2023/03/04 01:33:12;;;;;;;18.92;10.73;;;;;;;5.50;100.00;98596.25;5056132;28;20510;-60
2023/03/04 01:35:38;;;;;;;18.85;10.95;;;;;;;5.47;100.00;98603.41;5080788;28;20641;-60
2023/03/04 01:38:03;;;;;;;19.98;10.88;;;;;;;5.36;100.00;98588.72;5061709;28;20492;-60
2023/03/04 01:40:29;;;;;;;15.73;10.18;;;;;;;5.36;100.00;98583.56;5060989;28;20046;-60
2023/03/04 01:42:55;;;;;;;17.77;10.27;;;;;;;5.50;100.00;98588.53;5062896;28;20032;-60
2023/03/04 01:45:20;;;;;;;17.75;10.10;;;;;;;5.57;100.00;98589.72;5031320;28;20047;-60
2023/03/04 01:47:49;;;;;;;18.27;11.40;;;;;;;5.50;100.00;98592.88;5058879;28;20024;-59
2023/03/04 01:50:22;;;;;;;23.77;11.93;;;;;;;5.49;100.00;98586.88;5057233;28;20086;-60
2023/03/04 01:52:48;;;;;;;20.10;11.35;;;;;;;5.15;100.00;98530.06;5060855;28;20024;-60
2023/03/04 01:55:15;;;;;;;18.83;11.18;;;;;;;5.63;100.00;98591.00;5059476;28;20055;-60
2023/03/04 01:57:41;;;;;;;20.38;11.43;;;;;;;5.65;100.00;98580.59;5041919;28;20707;-60
2023/03/04 02:00:18;;;;;;;18.08;10.98;;;;;;;5.60;100.00;98573.19;5073103;28;20115;-60
2023/03/04 02:02:44;;;;;;;19.77;11.65;;;;;;;5.63;100.00;98580.69;5048520;28;20031;-60
2023/03/04 02:05:10;;;;;;;18.63;10.77;;;;;;;5.59;100.00;98574.13;5059288;28;20036;-60
2023/03/04 02:07:35;;;;;;;18.00;11.82;;;;;;;5.57;100.00;98565.69;5060883;28;20027;-60
2023/03/04 02:10:02;;;;;;;19.23;12.02;;;;;;;5.58;100.00;98564.72;5084213;28;20040;-60
2023/03/04 02:12:27;;;;;;;19.88;10.98;;;;;;;5.62;100.00;98565.34;5048679;28;20139;-59
2023/03/04 02:14:52;;;;;;;16.98;10.88;;;;;;;5.59;100.00;98563.81;5066521;28;20028;-60
2023/03/04 02:17:24;;;;;;;19.15;11.38;;;;;;;5.53;100.00;98562.50;5065126;28;20020;-60
2023/03/04 02:20:02;;;;;;;19.42;12.00;;;;;;;5.17;100.00;98504.97;5059035;28;20146;-59
2023/03/04 02:22:28;;;;;;;17.20;11.00;;;;;;;5.43;100.00;98551.22;5058090;28;20510;-60
2023/03/04 02:25:00;;;;;;;19.05;11.90;;;;;;;5.49;100.00;98553.34;5060269;28;20032;-60
2023/03/04 02:27:25;;;;;;;18.95;11.23;;;;;;;5.57;100.00;98550.22;5060052;28;20033;-60
2023/03/04 02:29:51;;;;;;;19.25;11.05;;;;;;;5.52;100.00;98537.66;5075047;28;20043;-60
2023/03/04 02:32:16;;;;;;;17.88;11.32;;;;;;;5.54;100.00;98547.84;5063815;28;20038;-60
2023/03/04 02:34:47;;;;;;;17.67;11.00;;;;;;;5.34;100.00;98534.66;5058966;28;20535;-60
2023/03/04 02:37:13;;;;;;;20.90;11.60;;;;;;;5.31;100.00;98534.06;5081077;28;20510;-59
2023/03/04 02:39:41;;;;;;;21.33;12.00;;;;;;;5.28;100.00;98521.44;5065022;28;20451;-60
2023/03/04 02:42:07;;;;;;;18.17;11.80;;;;;;;5.35;100.00;98533.75;5061067;28;20054;-60
2023/03/04 02:44:35;;;;;;;20.88;12.02;;;;;;;5.14;100.00;98482.00;5045940;28;20047;-60
2023/03/04 02:47:02;;;;;;;21.85;12.40;;;;;;;5.43;100.00;98525.44;5082365;28;20071;-60
2023/03/04 02:49:29;;;;;;;19.05;11.55;;;;;;;5.44;100.00;98542.56;5065462;28;20480;-60
2023/03/04 02:52:02;;;;;;;22.20;11.98;;;;;;;5.24;100.00;98525.16;5062376;28;20024;-60
2023/03/04 02:54:28;;;;;;;18.38;11.10;;;;;;;5.38;100.00;98533.53;5055333;28;20097;-60
2023/03/04 02:56:58;;;;;;;17.65;11.30;;;;;;;5.25;100.00;98521.66;5064339;28;20119;-59
2023/03/04 02:59:23;;;;;;;18.90;11.95;;;;;;;5.29;100.00;98526.44;5060861;28;20037;-59
2023/03/04 03:01:49;;;;;;;18.48;11.20;;;;;;;5.22;100.00;98542.50;5045768;28;20095;-60
2023/03/04 03:04:15;;;;;;;18.52;10.07;;;;;;;5.19;100.00;98518.59;5065216;28;20032;-60
2023/03/04 03:06:40;;;;;;;20.45;11.35;;;;;;;5.20;100.00;98522.81;5065399;28;20024;-60
2023/03/04 03:09:06;;;;;;;20.85;11.93;;;;;;;5.19;100.00;98522.91;5077784;28;20107;-59
2023/03/04 03:11:32;;;;;;;20.38;11.63;;;;;;;5.16;100.00;98523.13;5082662;28;20032;-59
2023/03/04 03:13:57;;;;;;;22.05;12.05;;;;;;;5.18;100.00;98522.09;5043053;28;20040;-60
2023/03/04 03:16:23;;;;;;;19.00;10.95;;;;;;;5.29;100.00;98518.72;5082950;28;20047;-60
2023/03/04 03:18:48;;;;;;;18.25;11.52;;;;;;;5.21;100.00;98510.75;5049309;28;20420;-60
2023/03/04 03:21:14;;;;;;;20.05;12.38;;;;;;;5.05;100.00;98515.38;5084221;28;20070;-60
2023/03/04 03:23:39;;;;;;;20.67;12.32;;;;;;;5.02;100.00;98516.44;5082937;28;20771;-60
2023/03/04 03:26:05;;;;;;;19.73;11.60;;;;;;;5.01;100.00;98514.78;5073416;28;20032;-60
2023/03/04 03:28:30;;;;;;;21.40;11.63;;;;;;;5.07;100.00;98504.00;5048401;28;20838;-59
2023/03/04 03:30:56;;;;;;;19.15;11.15;;;;;;;4.77;100.00;98451.22;5065298;28;20036;-60
2023/03/04 03:33:21;;;;;;;18.90;10.95;;;;;;;5.25;100.00;98517.31;5069950;28;20811;-60
2023/03/04 03:35:47;;;;;;;19.88;11.82;;;;;;;5.30;100.00;98519.56;5060325;28;20139;-60
2023/03/04 03:38:12;;;;;;;20.40;11.93;;;;;;;5.24;100.00;98509.69;5080701;28;20028;-60
2023/03/04 03:40:38;;;;;;;18.65;11.18;;;;;;;5.22;100.00;98511.56;5080352;28;20705;-60
2023/03/04 03:43:03;;;;;;;19.77;11.88;;;;;;;4.87;100.00;98451.34;5063843;28;20463;-60
2023/03/04 03:45:29;;;;;;;17.30;11.40;;;;;;;5.21;100.00;98513.31;5059366;28;20470;-59
2023/03/04 03:47:54;;;;;;;18.75;11.30;;;;;;;5.19;100.00;98508.28;5074233;28;20024;-60
2023/03/04 03:50:19;;;;;;;20.00;11.10;;;;;;;5.25;100.00;98511.34;5060803;28;20110;-60
2023/03/04 03:52:45;;;;;;;17.35;10.38;;;;;;;5.10;100.00;98490.91;5079754;28;20640;-60
2023/03/04 03:55:10;;;;;;;19.58;11.27;;;;;;;5.25;100.00;98508.75;5063054;28;20032;-60
2023/03/04 03:57:36;;;;;;;17.27;10.30;;;;;;;5.21;100.00;98510.75;5042361;28;20709;-60
2023/03/04 04:00:03;;;;;;;16.80;10.07;;;;;;;5.13;100.00;98515.63;5063283;28;20032;-65
2023/03/04 04:02:28;;;;;;;18.65;11.38;;;;;;;5.10;100.00;98516.69;5048041;28;20062;-60
2023/03/04 04:04:53;;;;;;;19.45;11.40;;;;;;;5.12;100.00;98512.22;5055615;28;20516;-60
2023/03/04 04:07:19;;;;;;;17.60;11.00;;;;;;;5.07;100.00;98504.00;5069664;28;20020;-60
2023/03/04 04:09:44;;;;;;;19.02;10.70;;;;;;;4.77;100.00;98458.13;5041214;28;20036;-60
2023/03/04 04:12:13;;;;;;;22.08;12.05;;;;;;;4.66;100.00;98446.03;5050416;28;20081;-60
2023/03/04 04:14:39;;;;;;;20.23;11.57;;;;;;;5.09;100.00;98497.00;5047806;28;20059;-60
2023/03/04 04:17:04;;;;;;;21.30;12.48;;;;;;;4.84;100.00;98450.75;5049506;28;20124;-60
2023/03/04 04:19:29;;;;;;;21.05;11.15;;;;;;;5.14;100.00;98504.38;5062466;28;20131;-60
2023/03/04 04:21:55;;;;;;;20.70;10.70;;;;;;;4.79;100.00;98441.63;5029912;28;20028;-60
2023/03/04 04:24:20;;;;;;;20.20;11.45;;;;;;;4.83;100.00;98457.66;5062939;28;20036;-60
2023/03/04 04:26:46;;;;;;;19.88;12.18;;;;;;;5.08;100.00;98491.97;5049642;28;20931;-60
2023/03/04 04:29:12;;;;;;;23.48;11.90;;;;;;;5.12;100.00;98506.25;5035918;28;20131;-60
2023/03/04 04:31:38;;;;;;;19.52;11.52;;;;;;;5.04;100.00;98498.25;5059591;28;20036;-60
2023/03/04 04:34:03;;;;;;;20.67;10.95;;;;;;;5.05;100.00;98500.72;5050227;28;20104;-60
2023/03/04 04:36:29;;;;;;;21.70;11.45;;;;;;;5.09;100.00;98502.16;5054732;28;20032;-60
2023/03/04 04:38:54;;;;;;;18.40;11.07;;;;;;;4.97;100.00;98500.47;5043216;28;20061;-59
2023/03/04 04:41:26;;;;;;;18.77;10.82;;;;;;;4.80;100.00;98445.00;5060333;28;20602;-60
2023/03/04 04:43:51;;;;;;;19.77;10.75;;;;;;;5.17;100.00;98509.31;5054669;28;21624;-60
2023/03/04 04:46:17;;;;;;;19.50;11.50;;;;;;;5.16;100.00;98510.25;5052793;28;20040;-60
2023/03/04 04:48:43;;;;;;;18.77;10.40;;;;;;;5.31;100.00;98506.56;5049820;28;20032;-60
2023/03/04 04:51:09;;;;;;;19.10;11.07;;;;;;;5.23;100.00;98500.31;5070635;28;20131;-59
2023/03/04 04:53:34;;;;;;;19.13;11.02;;;;;;;4.92;100.00;98462.16;5042787;28;20576;-59
2023/03/04 04:55:59;;;;;;;20.10;11.38;;;;;;;5.26;100.00;98511.22;5069516;28;20576;-59
2023/03/04 04:58:25;;;;;;;18.70;10.68;;;;;;;5.19;100.00;98503.13;5057982;28;20033;-63
2023/03/04 05:00:50;;;;;;;18.67;10.32;;;;;;;5.27;100.00;98512.03;5058528;28;20114;-59
2023/03/04 05:03:16;;;;;;;18.67;10.52;;;;;;;5.07;100.00;98501.44;5061745;28;20028;-59
2023/03/04 05:05:41;;;;;;;17.25;10.25;;;;;;;5.05;100.00;98505.06;5041197;28;20114;-59
2023/03/04 05:08:07;;;;;;;18.60;11.10;;;;;;;4.55;100.00;98446.00;5054371;28;20066;-59
2023/03/04 05:10:32;;;;;;;19.50;11.18;;;;;;;4.99;100.00;98508.91;5059248;28;20035;-59
2023/03/04 05:12:58;;;;;;;18.88;11.07;;;;;;;5.03;100.00;98504.34;5059868;28;20035;-59
2023/03/04 05:15:23;;;;;;;18.25;10.52;;;;;;;5.00;100.00;98502.81;5049459;28;20032;-59
2023/03/04 05:17:48;;;;;;;21.17;11.40;;;;;;;4.92;100.00;98494.84;5061069;28;20082;-59
2023/03/04 05:20:14;;;;;;;20.27;11.85;;;;;;;4.84;100.00;98502.28;5049180;28;20033;-59
2023/03/04 05:22:39;;;;;;;20.08;10.75;;;;;;;4.57;100.00;98437.22;5053401;28;20036;-59
2023/03/04 05:25:06;;;;;;;18.30;10.98;;;;;;;4.91;100.00;98493.19;5074170;28;20106;-59
2023/03/04 05:27:31;;;;;;;20.02;11.20;;;;;;;4.94;100.00;98498.94;5035128;28;20125;-59
2023/03/04 05:29:59;;;;;;;19.38;10.93;;;;;;;4.84;100.00;98490.25;5059534;28;20036;-59
2023/03/04 05:32:25;;;;;;;16.60;9.88;;;;;;;4.92;100.00;98495.66;5060271;28;20041;-58
2023/03/04 05:34:50;;;;;;;21.17;11.20;;;;;;;4.84;100.00;98495.41;5047764;28;20053;-59
2023/03/04 05:37:16;;;;;;;18.05;10.35;;;;;;;4.73;100.00;98498.75;5057384;28;20473;-59
2023/03/04 05:39:41;;;;;;;17.10;10.80;;;;;;;4.78;100.00;98494.09;5042929;28;20033;-59
2023/03/04 05:42:07;;;;;;;20.05;10.63;;;;;;;4.76;100.00;98485.66;5050166;28;20036;-59
2023/03/04 05:44:32;;;;;;;17.50;11.25;;;;;;;4.90;100.00;98497.50;5041486;28;20574;-58
2023/03/04 05:46:57;;;;;;;21.27;11.18;;;;;;;4.83;100.00;98491.16;5044192;28;20537;-59
2023/03/04 05:49:23;;;;;;;17.83;10.10;;;;;;;4.82;100.00;98497.25;5046893;28;20048;-59
2023/03/04 05:51:48;;;;;;;19.98;11.30;;;;;;;4.70;100.00;98490.41;5048124;28;20587;-59
2023/03/04 05:54:14;;;;;;;21.52;11.68;;;;;;;4.76;100.00;98495.13;5044251;28;20055;-59
2023/03/04 05:56:40;;;;;;;21.70;11.48;;;;;;;4.73;100.00;98503.91;5044330;28;20958;-60
2023/03/04 05:59:06;;;;;;;19.77;10.43;;;;;;;4.75;100.00;98507.19;5051629;28;20048;-60
2023/03/04 06:01:31;;;;;;;17.55;10.52;;;;;;;4.82;100.00;98505.00;5043100;28;20090;-60
2023/03/04 06:03:56;;;;;;;18.95;11.15;;;;;;;4.51;100.00;98457.41;5027411;28;20434;-60
2023/03/04 06:06:22;;;;;;;19.05;10.77;;;;;;;4.86;100.00;98508.16;5041887;28;20104;-60
2023/03/04 06:08:47;;;;;;;17.90;10.93;;;;;;;4.80;100.00;98501.69;5040316;28;20067;-60
2023/03/04 06:11:13;;;;;;;22.10;11.57;;;;;;;4.98;100.00;98527.88;5039417;28;20092;-59
2023/03/04 06:13:39;;;;;;;17.85;10.73;;;;;;;4.60;100.00;98488.50;5041746;28;20708;-59
2023/03/04 06:16:04;;;;;;;17.73;11.23;;;;;;;4.85;100.00;98527.13;5023291;28;20033;-59
2023/03/04 06:18:30;;;;;;;18.52;10.25;;;;;;;4.53;100.00;98471.84;5042065;28;20036;-59
2023/03/04 06:20:57;;;;;;;19.55;11.40;;;;;;;4.86;100.00;98515.91;5036362;28;20090;-59
2023/03/04 06:23:23;;;;;;;17.70;10.80;;;;;;;4.61;100.00;98487.56;5035040;28;20123;-60
2023/03/04 06:25:52;;;;;;;19.65;10.27;;;;;;;4.76;100.00;98537.19;5043245;28;20100;-59
2023/03/04 06:28:17;;;;;;;20.25;10.40;;;;;;;4.70;100.00;98534.19;5040413;28;20924;-60
2023/03/04 06:30:43;;;;;;;16.17;9.48;;;;;;;4.65;100.00;98529.38;5041586;28;20024;-60
2023/03/04 06:33:08;;;;;;;17.92;10.75;;;;;;;4.77;100.00;98543.94;5044007;28;20115;-59
2023/03/04 06:35:33;;;;;;;18.15;10.60;;;;;;;4.75;100.00;98545.00;5050964;28;20049;-60
2023/03/04 06:37:59;;;;;;;19.23;10.73;;;;;;;4.69;100.00;98530.81;5036941;28;20025;-60
2023/03/04 06:40:24;;;;;;;19.95;11.23;;;;;;;4.73;100.00;98544.28;5035123;28;20056;-59
2023/03/04 06:42:50;;;;;;;17.30;10.98;;;;;;;4.55;100.00;98534.34;5053633;28;20598;-59
2023/03/04 06:45:15;;;;;;;19.42;11.30;;;;;;;4.64;100.00;98540.63;5053241;28;20033;-60
2023/03/04 06:47:41;;;;;;;17.83;10.20;;;;;;;4.57;100.00;98549.69;5055426;28;20036;-59
2023/03/04 06:50:06;;;;;;;19.45;11.25;;;;;;;4.42;100.00;98546.47;5056931;28;20535;-59
2023/03/04 06:52:32;;;;;;;18.70;11.55;;;;;;;3.80;100.00;98481.22;5075538;28;20637;-59
2023/03/04 06:54:57;;;;;;;17.85;11.05;;;;;;;4.16;100.00;98543.09;5040686;28;20037;-59
2023/03/04 06:57:23;;;;;;;18.10;11.38;;;;;;;4.38;100.00;98552.72;5060135;28;20024;-59
2023/03/04 06:59:48;;;;;;;21.15;11.48;;;;;;;4.43;100.00;98553.22;5055720;28;20113;-59
2023/03/04 07:02:14;;;;;;;19.70;11.40;;;;;;;4.36;100.00;98552.84;5060710;28;20035;-59
2023/03/04 07:04:39;;;;;;;20.48;11.18;;;;;;;4.45;100.00;98545.41;5056794;28;20036;-59
2023/03/04 07:07:05;;;;;;;19.20;11.05;;;;;;;4.37;100.00;98546.75;5051432;28;20035;-59
2023/03/04 07:09:30;;;;;;;21.58;11.63;;;;;;;4.27;100.00;98550.06;5050920;28;20055;-60
2023/03/04 07:11:55;;;;;;;18.23;10.18;;;;;;;3.91;100.00;98484.81;5039827;28;20838;-59
2023/03/04 07:14:21;;;;;;;18.58;10.55;;;;;;;3.88;100.00;98485.00;5058444;28;20037;-60
2023/03/04 07:16:46;;;;;;;22.77;11.98;;;;;;;4.37;100.00;98558.81;5053347;28;20492;-59
2023/03/04 07:19:12;;;;;;;17.60;10.20;;;;;;;4.41;100.00;98550.75;5053988;28;20044;-60
2023/03/04 07:21:37;;;;;;;19.90;11.35;;;;;;;4.42;100.00;98556.75;5053575;28;20113;-60
2023/03/04 07:24:03;;;;;;;21.17;11.15;;;;;;;4.38;100.00;98545.84;5055254;28;20184;-60
2023/03/04 07:26:29;;;;;;;20.63;11.10;;;;;;;4.42;100.00;98555.00;5039458;28;20167;-60
2023/03/04 07:28:57;;;;;;;20.58;11.38;;;;;;;4.20;100.00;98505.94;5066643;28;20148;-60
2023/03/04 07:31:28;;;;;;;23.38;12.68;;;;;;;4.28;100.00;98511.38;5057239;28;20028;-60
2023/03/04 07:34:08;;;;;;;17.65;11.13;;;;;;;4.60;100.00;98560.63;5060472;28;20039;-60
2023/03/04 07:36:35;;;;;;;19.73;10.70;;;;;;;4.64;100.00;98563.78;5077689;28;20044;-60
2023/03/04 07:39:01;;;;;;;21.20;11.68;;;;;;;4.61;100.00;98564.00;5059225;28;20059;-60
2023/03/04 07:41:28;;;;;;;19.65;11.82;;;;;;;4.67;100.00;98563.56;5059021;28;20124;-60
2023/03/04 07:43:55;;;;;;;19.73;11.52;;;;;;;4.66;100.00;98561.94;5039857;28;20540;-59
2023/03/04 07:46:21;;;;;;;18.08;11.13;;;;;;;4.57;100.00;98558.25;5055316;28;20036;-60
2023/03/04 07:48:46;;;;;;;22.13;11.88;;;;;;;4.52;100.00;98557.75;5045780;28;20081;-60
2023/03/04 07:51:18;;;;;;;20.85;11.55;;;;;;;4.58;100.00;98559.91;5054786;28;20036;-59
2023/03/04 07:53:46;;;;;;;19.08;11.15;;;;;;;4.65;100.00;98557.69;5055822;28;20031;-60
2023/03/04 07:56:16;;;;;;;19.67;11.20;;;;;;;4.68;100.00;98544.59;5056886;28;20028;-60
2023/03/04 07:58:42;;;;;;;18.73;11.05;;;;;;;4.69;100.00;98554.00;5075870;28;20104;-61
2023/03/04 08:01:12;;;;;;;18.88;10.85;;;;;;;4.29;100.00;98489.00;5041552;28;20024;-60
2023/03/04 08:03:38;;;;;;;17.98;11.07;;;;;;;4.73;100.00;98554.59;5052634;28;20458;-60
2023/03/04 08:06:08;;;;;;;20.23;11.25;;;;;;;4.75;100.00;98558.69;5068451;28;20150;-60
2023/03/04 08:08:35;;;;;;;18.95;11.55;;;;;;;4.72;100.00;98545.22;5059210;28;20027;-60
2023/03/04 08:11:04;;;;;;;17.58;10.65;;;;;;;4.67;100.00;98537.00;5072851;28;20040;-60
2023/03/04 08:13:30;;;;;;;22.48;11.65;;;;;;;4.84;100.00;98549.50;5058590;28;21404;-61
2023/03/04 08:15:56;;;;;;;18.98;11.48;;;;;;;4.84;100.00;98541.78;5073355;28;20930;-60
2023/03/04 08:18:21;;;;;;;17.65;10.52;;;;;;;4.89;100.00;98546.56;5038579;28;20029;-60
2023/03/04 08:20:46;;;;;;;18.90;11.35;;;;;;;4.58;100.00;98508.41;5073807;28;20039;-60
2023/03/04 08:23:12;;;;;;;18.70;10.98;;;;;;;4.86;100.00;98546.81;5054419;28;20028;-59
2023/03/04 08:25:41;;;;;;;19.25;10.95;;;;;;;4.77;100.00;98528.50;5054487;28;20037;-59
2023/03/04 08:28:08;;;;;;;15.98;9.27;;;;;;;4.80;100.00;98540.31;5061232;28;20032;-61
2023/03/04 08:30:34;;;;;;;18.15;11.18;;;;;;;4.82;100.00;98535.91;5060104;28;20043;-60
2023/03/04 08:33:00;;;;;;;18.73;11.07;;;;;;;4.72;100.00;98530.56;5045670;28;20452;-59
2023/03/04 08:35:26;;;;;;;17.48;11.05;;;;;;;4.84;100.00;98528.03;5078383;28;20082;-60
2023/03/04 08:37:51;;;;;;;18.83;11.15;;;;;;;4.89;100.00;98523.38;5060116;28;20500;-60
2023/03/04 08:40:17;;;;;;;18.85;10.70;;;;;;;4.92;100.00;98524.00;5065031;28;20178;-59
2023/03/04 08:42:42;;;;;;;19.58;10.85;;;;;;;5.03;100.00;98523.22;5043053;28;20028;-59
2023/03/04 08:45:08;;;;;;;19.80;11.30;;;;;;;5.06;100.00;98527.34;5058522;28;20046;-59
2023/03/04 08:47:34;;;;;;;20.08;10.75;;;;;;;5.03;100.00;98530.94;5040369;28;20416;-59
2023/03/04 08:49:59;;;;;;;19.40;10.13;;;;;;;5.10;100.00;98531.34;5046177;28;20042;-60
2023/03/04 08:52:25;;;;;;;19.95;12.15;;;;;;;5.13;100.00;98526.78;5050047;28;20615;-59
2023/03/04 08:54:50;;;;;;;18.85;11.15;;;;;;;5.11;100.00;98531.22;5054266;28;20097;-59
2023/03/04 08:57:16;;;;;;;18.90;11.52;;;;;;;5.12;100.00;98519.97;5042774;28;20516;-59
2023/03/04 08:59:41;;;;;;;19.17;11.98;;;;;;;5.23;100.00;98526.91;5048439;28;20075;-60
2023/03/04 09:02:06;;;;;;;21.95;11.30;;;;;;;5.25;100.00;98529.38;5047394;28;20029;-60
2023/03/04 09:04:32;;;;;;;20.20;11.60;;;;;;;5.18;100.00;98523.84;5046002;28;20066;-60
2023/03/04 09:06:57;;;;;;;18.10;11.68;;;;;;;4.88;100.00;98465.09;5067340;28;20024;-60
2023/03/04 09:09:23;;;;;;;19.83;12.00;;;;;;;5.16;100.00;98511.06;5068051;28;20159;-60
2023/03/04 09:11:48;;;;;;;21.05;12.45;;;;;;;5.23;100.00;98515.78;5068001;28;20028;-59
2023/03/04 09:14:14;;;;;;;21.02;11.85;;;;;;;5.23;100.00;98520.94;5049161;28;20073;-59
2023/03/04 09:16:39;;;;;;;19.75;10.75;;;;;;;5.31;100.00;98514.28;5054845;28;20020;-59
2023/03/04 09:19:05;;;;;;;18.48;11.13;;;;;;;5.33;100.00;98517.56;5042899;28;20028;-59
2023/03/04 09:21:30;;;;;;;18.77;10.75;;;;;;;5.34;100.00;98503.72;5058655;28;20109;-62
2023/03/04 09:23:55;;;;;;;23.98;11.90;;;;;;;5.41;100.00;98505.88;5056362;28;20104;-59
2023/03/04 09:26:23;;;;;;;18.45;11.43;;;;;;;5.43;100.00;98498.84;5044626;28;20190;-59
2023/03/04 09:28:57;;;;;;;20.60;11.30;;;;;;;5.39;100.00;98491.31;5057365;28;20127;-59
2023/03/04 09:31:23;;;;;;;25.40;12.13;;;;;;;5.06;100.00;98435.38;5056837;28;20150;-59
2023/03/04 09:33:49;;;;;;;19.70;10.50;;;;;;;5.35;100.00;98489.09;5059853;28;20033;-59
2023/03/04 09:36:17;;;;;;;21.25;10.90;;;;;;;5.34;100.00;98488.25;5077396;28;20059;-60
2023/03/04 09:38:43;;;;;;;19.25;10.55;;;;;;;5.37;100.00;98490.63;5057202;28;20044;-59
2023/03/04 09:41:20;;;;;;;24.63;12.57;;;;;;;5.45;100.00;98486.66;5059509;28;20025;-60
2023/03/04 09:43:46;;;;;;;22.52;12.63;;;;;;;5.49;100.00;98483.69;5057073;28;20024;-59
2023/03/04 09:46:15;;;;;;;22.50;11.82;;;;;;;5.58;100.00;98477.03;5056033;28;20032;-60
2023/03/04 09:48:46;;;;;;;18.77;11.27;;;;;;;5.75;100.00;98473.19;5073652;28;20031;-59
2023/03/04 09:51:27;;;;;;;20.08;11.18;;;;;;;5.55;100.00;98413.63;5058209;28;20036;-59
2023/03/04 09:54:08;;;;;;;17.08;10.32;;;;;;;6.00;100.00;98472.13;5056838;28;20050;-59
2023/03/04 09:56:37;;;;;;;17.85;10.20;;;;;;;5.95;100.00;98410.56;5060399;28;20032;-60
2023/03/04 09:59:15;;;;;;;16.67;10.40;;;;;;;6.48;100.00;98453.72;5054509;28;20040;-59
2023/03/04 10:01:54;;;;;;;21.85;10.32;;;;;;;6.76;100.00;98468.78;5056920;28;20028;-59
2023/03/04 10:04:34;;;;;;;17.55;9.85;;;;;;;6.86;97.82;98452.41;5060761;28;20042;-59
2023/03/04 10:07:01;;;;;;;16.27;9.25;;;;;;;6.91;100.00;98439.09;5068156;28;20028;-60
2023/03/04 10:09:32;;;;;;;19.42;11.43;;;;;;;6.72;99.82;98401.03;5056319;28;20109;-59
2023/03/04 10:12:02;;;;;;;16.02;9.90;;;;;;;7.07;100.00;98449.81;5059650;28;20111;-60
2023/03/04 10:14:37;;;;;;;16.35;9.73;;;;;;;7.19;95.90;98450.59;5035010;28;20036;-60
2023/03/04 10:17:13;;;;;;;16.73;9.48;;;;;;;7.34;96.40;98440.72;5060462;28;20028;-60
2023/03/04 10:19:53;;;;;;;16.52;9.10;;;;;;;7.43;90.82;98434.78;5053710;28;20028;-59
2023/03/04 10:22:28;;;;;;;18.65;9.00;;;;;;;7.68;87.77;98438.72;5053739;28;20028;-59
2023/03/04 10:24:56;;;;;;;18.05;9.63;;;;;;;7.87;88.94;98440.53;5051061;28;20040;-59
2023/03/04 10:27:23;;;;;;;16.27;9.48;;;;;;;8.12;88.20;98442.78;5040604;28;20134;-60
2023/03/04 10:29:49;;;;;;;16.80;9.23;;;;;;;7.84;83.82;98373.50;5059574;28;20016;-60
2023/03/04 10:32:19;;;;;;;17.35;9.68;;;;;;;8.47;83.82;98431.97;5070804;28;20915;-59
2023/03/04 10:34:45;;;;;;;;;;;;;;;8.48;83.45;98432.78;5034479;28;20040;-59
2023/03/04 10:37:10;;;;;;;15.18;8.20;;;;;;;8.67;80.55;98435.38;5054326;28;19970;-60
2023/03/04 10:39:42;;;;;;;13.65;8.50;;;;;;;8.89;78.93;98416.13;5058461;28;20024;-60
2023/03/04 10:42:13;;;;;;;16.02;8.45;;;;;;;8.85;84.40;98417.34;5054051;28;20033;-60
2023/03/04 10:44:51;;;;;;;17.67;9.32;;;;;;;8.82;82.88;98417.63;5059468;28;20040;-59
2023/03/04 10:47:16;;;;;;;16.23;8.82;;;;;;;8.57;82.70;98356.81;5055815;28;20132;-60
2023/03/04 10:49:51;;;;;;;17.77;9.85;;;;;;;8.91;80.96;98409.03;5057602;28;20033;-59
2023/03/04 10:52:25;;;;;;;20.42;10.50;;;;;;;9.36;80.27;98407.53;5054117;28;20767;-59
2023/03/04 10:54:53;;;;;;;17.85;10.63;;;;;;;9.31;83.91;98392.41;5071721;28;20020;-60
2023/03/04 10:57:31;;;;;;;20.33;10.98;;;;;;;9.46;81.33;98397.13;5057792;28;20020;-59
2023/03/04 11:00:02;;;;;;;18.38;10.73;;;;;;;9.72;77.46;98392.09;5054611;28;20047;-60
2023/03/04 11:02:35;;;;;;;19.52;11.13;;;;;;;9.68;77.31;98388.97;5055996;28;20094;-59
2023/03/04 11:05:20;;;;;;;20.38;11.45;;;;;;;9.78;75.93;98384.56;5042529;28;20052;-59
2023/03/04 11:07:58;;;;;;;19.15;11.55;;;;;;;9.85;74.65;98381.34;5060264;28;20044;-59
2023/03/04 11:10:37;;;;;;;21.00;11.85;;;;;;;9.85;74.11;98371.78;5037332;28;20033;-60
2023/03/04 11:13:11;;;;;;;20.58;11.27;;;;;;;10.05;72.43;98371.66;5056703;28;20064;-59
2023/03/04 11:16:01;;;;;;;22.90;12.50;;;;;;;10.14;72.80;98363.78;5056056;28;20036;-59
2023/03/04 11:18:46;;;;;;;20.95;11.85;;;;;;;10.14;72.77;98368.19;5032729;28;20048;-60